createdAt,value
2023-05-09T00:02:26.230Z,101424.41
2023-05-09T00:04:54.345Z,101422.00
2023-05-09T00:07:23.050Z,101414.59
2023-05-09T00:09:51.595Z,101417.41
2023-05-09T00:12:20.183Z,101423.34
2023-05-09T00:14:52.043Z,101421.81
2023-05-09T00:17:27.267Z,101418.28
2023-05-09T00:19:55.937Z,101422.97
2023-05-09T00:22:24.056Z,101429.22
2023-05-09T00:24:52.293Z,101421.31
2023-05-09T00:27:20.203Z,101416.06
2023-05-09T00:29:48.315Z,101422.03
2023-05-09T00:32:16.410Z,101423.44
2023-05-09T00:34:45.845Z,101432.50
2023-05-09T00:37:14.154Z,101425.28
2023-05-09T00:39:42.654Z,101428.94
2023-05-09T00:42:14.226Z,101421.16
2023-05-09T00:44:47.918Z,101428.06
2023-05-09T00:47:16.109Z,101416.53
2023-05-09T00:49:44.389Z,101425.19
2023-05-09T00:52:12.649Z,101420.47
2023-05-09T00:54:40.973Z,101415.78
2023-05-09T00:57:09.586Z,101412.31
2023-05-09T00:59:39.730Z,101416.72
2023-05-09T01:02:08.048Z,101415.56
2023-05-09T01:04:36.332Z,101411.72
2023-05-09T01:07:10.079Z,101416.31
2023-05-09T01:09:56.478Z,101425.75
2023-05-09T01:12:48.987Z,101406.91
2023-05-09T01:15:32.616Z,101416.13
2023-05-09T01:18:16.959Z,101421.31
2023-05-09T01:20:54.316Z,101419.91
2023-05-09T01:23:46.552Z,101420.94
2023-05-09T01:26:20.481Z,101418.81
2023-05-09T01:29:08.697Z,101423.81
2023-05-09T01:31:39.350Z,101411.84
2023-05-09T01:34:09.017Z,101412.09
2023-05-09T01:36:38.923Z,101419.78
2023-05-09T01:39:08.101Z,101412.31
2023-05-09T01:41:38.242Z,101416.25
2023-05-09T01:44:12.077Z,101424.13
2023-05-09T01:46:41.000Z,101419.78
2023-05-09T01:49:10.061Z,101424.41
2023-05-09T01:51:43.702Z,101415.56
2023-05-09T01:54:12.847Z,101428.44
2023-05-09T01:56:42.833Z,101417.09
2023-05-09T01:59:16.361Z,101426.91
2023-05-09T02:01:47.533Z,101421.81
2023-05-09T02:04:16.836Z,101422.84
2023-05-09T02:06:45.053Z,101434.97
2023-05-09T02:09:13.513Z,101422.50
2023-05-09T02:11:41.782Z,101441.78
2023-05-09T02:14:10.332Z,101434.28
2023-05-09T02:16:39.929Z,101423.41
2023-05-09T02:19:08.318Z,101434.00
2023-05-09T02:21:36.784Z,101426.50
2023-05-09T02:24:05.355Z,101423.22
2023-05-09T02:26:34.147Z,101434.56
2023-05-09T02:29:04.350Z,101437.03
2023-05-09T02:31:34.670Z,101437.03
2023-05-09T02:34:04.966Z,101420.53
2023-05-09T02:36:33.795Z,101435.22
2023-05-09T02:39:04.632Z,101432.78
2023-05-09T02:41:33.245Z,101429.34
2023-05-09T02:44:01.251Z,101433.31
2023-05-09T02:46:30.054Z,101434.00
2023-05-09T02:48:58.350Z,101434.56
2023-05-09T02:51:26.553Z,101429.94
2023-05-09T02:53:54.453Z,101435.72
2023-05-09T02:56:22.627Z,101431.03
2023-05-09T02:58:51.700Z,101437.09
2023-05-09T03:01:20.112Z,101432.16
2023-05-09T03:03:48.761Z,101434.97
2023-05-09T03:06:17.157Z,101437.19
2023-05-09T03:08:45.442Z,101437.66
2023-05-09T03:11:13.755Z,101440.06
2023-05-09T03:13:42.134Z,101435.38
2023-05-09T03:16:14.086Z,101452.56
2023-05-09T03:18:43.152Z,101446.50
2023-05-09T03:21:11.479Z,101459.78
2023-05-09T03:23:40.316Z,101446.25
2023-05-09T03:26:08.523Z,101455.75
2023-05-09T03:28:36.496Z,101461.50
2023-05-09T03:31:05.327Z,101460.03
2023-05-09T03:33:33.869Z,101459.56
2023-05-09T03:36:02.207Z,101470.44
2023-05-09T03:38:30.444Z,101465.69
2023-05-09T03:40:58.638Z,101468.94
2023-05-09T03:43:26.972Z,101474.88
2023-05-09T03:45:56.462Z,101469.06
2023-05-09T03:48:24.657Z,101471.72
2023-05-09T03:50:52.927Z,101480.34
2023-05-09T03:53:22.870Z,101482.53
2023-05-09T03:55:51.164Z,101487.38
2023-05-09T03:58:22.276Z,101487.97
2023-05-09T04:00:51.386Z,101484.44
2023-05-09T04:03:19.516Z,101482.81
2023-05-09T04:05:48.347Z,101486.25
2023-05-09T04:08:18.569Z,101490.59
2023-05-09T04:10:51.024Z,101492.97
2023-05-09T04:13:23.413Z,101496.44
2023-05-09T04:15:52.402Z,101492.56
2023-05-09T04:18:20.688Z,101495.22
2023-05-09T04:20:48.756Z,101500.91
2023-05-09T04:23:17.097Z,101494.31
2023-05-09T04:25:45.363Z,101496.81
2023-05-09T04:28:13.481Z,101499.16
2023-05-09T04:30:42.013Z,101501.88
2023-05-09T04:33:10.198Z,101496.16
2023-05-09T04:35:38.992Z,101493.91
2023-05-09T04:38:06.939Z,101494.34
2023-05-09T04:40:35.176Z,101490.72
2023-05-09T04:43:04.250Z,101494.06
2023-05-09T04:45:35.216Z,101491.47
2023-05-09T04:48:04.404Z,101491.91
2023-05-09T04:50:32.760Z,101489.41
2023-05-09T04:53:00.817Z,101494.09
2023-05-09T04:55:29.427Z,101491.09
2023-05-09T04:57:57.598Z,101490.97
2023-05-09T05:00:28.598Z,101491.28
2023-05-09T05:02:56.821Z,101498.41
2023-05-09T05:05:35.996Z,101499.13
2023-05-09T05:08:05.672Z,101496.81
2023-05-09T05:10:34.402Z,101492.34
2023-05-09T05:13:03.054Z,101489.09
2023-05-09T05:15:31.248Z,101496.84
2023-05-09T05:17:59.631Z,101494.84
2023-05-09T05:20:27.996Z,101497.91
2023-05-09T05:22:56.335Z,101498.78
2023-05-09T05:25:25.797Z,101501.47
2023-05-09T05:27:53.785Z,101504.38
2023-05-09T05:30:21.881Z,101509.06
2023-05-09T05:32:49.997Z,101505.38
2023-05-09T05:35:18.435Z,101500.06
2023-05-09T05:37:48.956Z,101502.38
2023-05-09T05:40:17.369Z,101501.66
2023-05-09T05:42:46.958Z,101502.94
2023-05-09T05:45:15.540Z,101505.38
2023-05-09T05:47:44.602Z,101511.00
2023-05-09T05:50:13.605Z,101504.16
2023-05-09T05:52:42.405Z,101509.22
2023-05-09T05:55:11.062Z,101502.97
2023-05-09T05:57:39.718Z,101516.69
2023-05-09T06:00:12.212Z,101517.69
2023-05-09T06:02:44.948Z,101510.41
2023-05-09T06:05:13.268Z,101509.50
2023-05-09T06:07:44.505Z,101505.94
2023-05-09T06:10:12.529Z,101510.53
2023-05-09T06:12:42.311Z,101507.59
2023-05-09T06:15:10.925Z,101507.59
2023-05-09T06:17:40.713Z,101508.97
2023-05-09T06:20:09.409Z,101507.69
2023-05-09T06:22:43.572Z,101509.72
2023-05-09T06:25:12.719Z,101500.25
2023-05-09T06:27:41.222Z,101512.03
2023-05-09T06:30:23.895Z,101511.91
2023-05-09T06:32:53.588Z,101503.22
2023-05-09T06:35:22.215Z,101498.22
2023-05-09T06:37:51.073Z,101505.78
2023-05-09T06:40:19.415Z,101519.34
2023-05-09T06:42:47.929Z,101506.66
2023-05-09T06:45:16.629Z,101515.59
2023-05-09T06:47:45.749Z,101507.16
2023-05-09T06:50:16.781Z,101516.44
2023-05-09T06:52:44.806Z,101513.44
2023-05-09T06:55:13.045Z,101510.72
2023-05-09T06:57:41.533Z,101513.41
2023-05-09T07:00:10.298Z,101517.44
2023-05-09T07:02:42.652Z,101505.72
2023-05-09T07:05:11.332Z,101509.06
2023-05-09T07:07:41.484Z,101508.00
2023-05-09T07:10:12.294Z,101514.84
2023-05-09T07:12:41.882Z,101502.72
2023-05-09T07:15:11.440Z,101512.50
2023-05-09T07:17:39.951Z,101503.28
2023-05-09T07:20:08.366Z,101502.63
2023-05-09T07:22:37.970Z,101498.94
2023-05-09T07:25:10.177Z,101494.16
2023-05-09T07:27:38.818Z,101500.97
2023-05-09T07:30:08.264Z,101495.09
2023-05-09T07:32:37.643Z,101494.06
2023-05-09T07:35:06.254Z,101484.78
2023-05-09T07:37:35.288Z,101496.81
2023-05-09T07:40:03.805Z,101487.25
2023-05-09T07:42:33.100Z,101485.28
2023-05-09T07:45:01.339Z,101479.78
2023-05-09T07:47:29.577Z,101486.47
2023-05-09T07:49:57.920Z,101485.44
2023-05-09T07:52:26.301Z,101467.34
2023-05-09T07:54:54.845Z,101474.63
2023-05-09T07:57:23.092Z,101471.19
2023-05-09T07:59:50.933Z,101472.13
2023-05-09T08:02:19.436Z,101472.28
2023-05-09T08:04:49.344Z,101487.19
2023-05-09T08:07:17.643Z,101481.50
2023-05-09T08:09:46.024Z,101475.22
2023-05-09T08:12:14.151Z,101462.66
2023-05-09T08:14:42.452Z,101454.25
2023-05-09T08:17:10.353Z,101458.25
2023-05-09T08:19:38.395Z,101453.53
2023-05-09T08:22:06.888Z,101457.75
2023-05-09T08:24:36.064Z,101453.44
2023-05-09T08:27:04.376Z,101456.25
2023-05-09T08:29:32.560Z,101450.84
2023-05-09T08:32:00.800Z,101458.63
2023-05-09T08:34:28.994Z,101450.06
2023-05-09T08:36:56.953Z,101455.97
2023-05-09T08:39:25.355Z,101444.91
2023-05-09T08:41:57.105Z,101443.06
2023-05-09T08:44:25.824Z,101438.47
2023-05-09T08:46:55.940Z,101436.81
2023-05-09T08:49:23.943Z,101442.03
2023-05-09T08:51:52.653Z,101443.31
2023-05-09T08:54:22.866Z,101436.81
2023-05-09T08:56:51.764Z,101431.44
2023-05-09T08:59:20.065Z,101423.13
2023-05-09T09:01:48.361Z,101430.22
2023-05-09T09:04:16.564Z,101433.63
2023-05-09T09:06:44.841Z,101430.31
2023-05-09T09:09:14.148Z,101413.97
2023-05-09T09:11:42.772Z,101424.44
2023-05-09T09:14:16.968Z,101418.28
2023-05-09T09:16:45.564Z,101416.41
2023-05-09T09:19:15.284Z,101416.69
2023-05-09T09:21:45.995Z,101404.97
2023-05-09T09:24:15.028Z,101407.84
2023-05-09T09:26:50.426Z,101424.78
2023-05-09T09:29:21.340Z,101409.44
2023-05-09T09:31:55.253Z,101410.22
2023-05-09T09:34:24.149Z,101411.94
2023-05-09T09:36:52.917Z,101414.13
2023-05-09T09:39:22.434Z,101410.25
2023-05-09T09:41:50.837Z,101411.06
2023-05-09T09:44:20.476Z,101406.00
2023-05-09T09:46:52.535Z,101404.81
2023-05-09T09:49:24.822Z,101397.53
2023-05-09T09:51:54.153Z,101421.56
2023-05-09T09:54:22.568Z,101411.44
2023-05-09T09:56:55.497Z,101396.09
2023-05-09T09:59:26.957Z,101405.41
2023-05-09T10:02:03.444Z,101402.41
2023-05-09T10:04:36.185Z,101406.25
2023-05-09T10:07:06.604Z,101409.81
2023-05-09T10:09:36.029Z,101407.09
2023-05-09T10:12:06.670Z,101397.09
2023-05-09T10:14:37.229Z,101394.19
2023-05-09T10:17:14.333Z,101408.25
2023-05-09T10:19:46.818Z,101410.09
2023-05-09T10:22:16.752Z,101421.03
2023-05-09T10:25:07.179Z,101400.88
2023-05-09T10:27:37.036Z,101411.25
2023-05-09T10:30:13.161Z,101413.41
2023-05-09T10:32:49.764Z,101409.97
2023-05-09T10:35:19.150Z,101406.81
2023-05-09T10:37:47.375Z,101386.03
2023-05-09T10:40:16.046Z,101389.81
2023-05-09T10:42:45.121Z,101414.94
2023-05-09T10:45:14.518Z,101406.66
2023-05-09T10:47:44.355Z,101415.13
2023-05-09T10:50:15.836Z,101408.78
2023-05-09T10:53:14.459Z,101396.31
2023-05-09T10:55:57.886Z,101398.63
2023-05-09T10:58:30.284Z,101390.31
2023-05-09T11:01:03.572Z,101398.22
2023-05-09T11:03:57.453Z,101407.94
2023-05-09T11:06:49.745Z,101386.88
2023-05-09T11:09:28.726Z,101402.13
2023-05-09T11:11:58.925Z,101395.38
2023-05-09T11:14:40.047Z,101403.31
2023-05-09T11:17:28.263Z,101405.50
2023-05-09T11:20:07.140Z,101401.94
2023-05-09T11:22:43.715Z,101411.25
2023-05-09T11:25:15.909Z,101399.38
2023-05-09T11:27:46.654Z,101405.38
2023-05-09T11:30:20.137Z,101406.41
2023-05-09T11:32:52.226Z,101401.22
2023-05-09T11:35:22.569Z,101402.31
2023-05-09T11:38:05.220Z,101386.78
2023-05-09T11:40:35.188Z,101397.09
2023-05-09T11:43:03.543Z,101387.66
2023-05-09T11:45:33.212Z,101387.34
2023-05-09T11:48:02.465Z,101391.09
2023-05-09T11:50:30.949Z,101392.22
2023-05-09T11:53:01.486Z,101389.06
2023-05-09T11:55:30.651Z,101379.16
2023-05-09T11:57:59.509Z,101386.75
2023-05-09T12:00:28.139Z,101387.63
2023-05-09T12:02:56.887Z,101390.94
2023-05-09T12:05:25.963Z,101387.22
2023-05-09T12:07:54.255Z,101378.97
2023-05-09T12:10:23.540Z,101371.91
2023-05-09T12:12:53.789Z,101364.63
2023-05-09T12:15:22.447Z,101372.09
2023-05-09T12:18:07.241Z,101370.53
2023-05-09T12:20:45.490Z,101384.94
2023-05-09T12:23:15.120Z,101365.28
2023-05-09T12:25:54.995Z,101359.56
2023-05-09T12:28:30.505Z,101351.94
2023-05-09T12:30:59.810Z,101359.06
2023-05-09T12:33:28.573Z,101352.03
2023-05-09T12:36:08.518Z,101346.59
2023-05-09T12:38:37.691Z,101348.78
2023-05-09T12:41:29.622Z,101340.88
2023-05-09T12:43:59.960Z,101341.16
2023-05-09T12:46:29.813Z,101342.50
2023-05-09T12:48:58.032Z,101346.31
2023-05-09T12:51:26.417Z,101336.19
2023-05-09T12:54:06.641Z,101338.09
2023-05-09T12:56:39.944Z,101340.41
2023-05-09T12:59:11.883Z,101326.09
2023-05-09T13:01:40.925Z,101328.25
2023-05-09T13:04:11.931Z,101344.41
2023-05-09T13:06:49.460Z,101334.09
2023-05-09T13:09:18.817Z,101323.25
2023-05-09T13:11:48.128Z,101323.66
2023-05-09T13:14:16.464Z,101327.28
2023-05-09T13:16:45.405Z,101322.97
2023-05-09T13:19:13.959Z,101328.16
2023-05-09T13:21:42.080Z,101319.25
2023-05-09T13:24:10.387Z,101321.63
2023-05-09T13:26:39.514Z,101333.34
2023-05-09T13:29:08.321Z,101315.50
2023-05-09T13:31:37.036Z,101319.41
2023-05-09T13:34:05.149Z,101320.84
2023-05-09T13:36:33.622Z,101316.38
2023-05-09T13:39:02.269Z,101318.06
2023-05-09T13:41:32.515Z,101316.16
2023-05-09T13:44:00.996Z,101321.91
2023-05-09T13:46:29.049Z,101328.25
2023-05-09T13:48:57.144Z,101336.16
2023-05-09T13:51:26.471Z,101317.59
2023-05-09T13:53:54.710Z,101315.41
2023-05-09T13:56:22.903Z,101320.84
2023-05-09T13:58:51.510Z,101311.44
2023-05-09T14:01:19.936Z,101313.88
2023-05-09T14:03:49.560Z,101316.09
2023-05-09T14:06:18.357Z,101325.81
2023-05-09T14:08:47.012Z,101319.13
2023-05-09T14:11:15.439Z,101317.59
2023-05-09T14:13:43.681Z,101317.25
2023-05-09T14:16:12.007Z,101316.28
2023-05-09T14:18:42.851Z,101323.53
2023-05-09T14:21:11.253Z,101317.06
2023-05-09T14:23:40.060Z,101316.94
2023-05-09T14:26:08.820Z,101324.66
2023-05-09T14:28:38.922Z,101317.53
2023-05-09T14:31:07.922Z,101311.56
2023-05-09T14:33:40.255Z,101309.72
2023-05-09T14:36:09.150Z,101313.03
2023-05-09T14:38:38.494Z,101315.81
2023-05-09T14:41:07.878Z,101318.63
2023-05-09T14:43:37.223Z,101314.34
2023-05-09T14:46:06.317Z,101311.28
2023-05-09T14:48:35.182Z,101320.53
2023-05-09T14:51:03.881Z,101316.50
2023-05-09T14:53:32.126Z,101313.41
2023-05-09T14:56:00.340Z,101321.56
2023-05-09T14:58:31.396Z,101322.91
2023-05-09T15:01:00.694Z,101322.16
2023-05-09T15:03:29.310Z,101305.88
2023-05-09T15:06:00.313Z,101310.94
2023-05-09T15:08:28.811Z,101315.81
2023-05-09T15:10:58.210Z,101313.31
2023-05-09T15:13:26.726Z,101326.06
2023-05-09T15:15:57.499Z,101322.56
2023-05-09T15:18:29.150Z,101324.41
2023-05-09T15:20:57.973Z,101329.88
2023-05-09T15:23:26.444Z,101318.00
2023-05-09T15:25:54.925Z,101331.25
2023-05-09T15:28:25.833Z,101312.38
2023-05-09T15:30:54.212Z,101323.22
2023-05-09T15:33:22.471Z,101335.06
2023-05-09T15:35:52.381Z,101319.44
2023-05-09T15:38:21.825Z,101322.06
2023-05-09T15:40:50.393Z,101325.00
2023-05-09T15:43:18.938Z,101326.84
2023-05-09T15:45:47.569Z,101329.22
2023-05-09T15:48:17.132Z,101333.44
2023-05-09T15:50:45.658Z,101330.72
2023-05-09T15:53:16.017Z,101322.03
2023-05-09T15:55:44.945Z,101322.50
2023-05-09T15:58:17.305Z,101328.31
2023-05-09T16:00:51.819Z,101329.41
2023-05-09T16:03:20.896Z,101314.91
2023-05-09T16:05:49.928Z,101323.16
2023-05-09T16:08:18.654Z,101317.38
2023-05-09T16:10:49.305Z,101323.91
2023-05-09T16:13:18.232Z,101322.31
2023-05-09T16:15:48.316Z,101322.06
2023-05-09T16:18:31.922Z,101317.63
2023-05-09T16:21:00.059Z,101320.22
2023-05-09T16:23:28.553Z,101322.78
2023-05-09T16:25:56.466Z,101318.63
2023-05-09T16:28:25.461Z,101315.91
2023-05-09T16:30:54.147Z,101316.63
2023-05-09T16:33:22.697Z,101311.00
2023-05-09T16:35:50.946Z,101309.09
2023-05-09T16:38:19.431Z,101322.84
2023-05-09T16:40:47.648Z,101319.53
2023-05-09T16:43:16.903Z,101318.28
2023-05-09T16:45:45.155Z,101309.16
2023-05-09T16:48:13.338Z,101313.44
2023-05-09T16:50:43.658Z,101308.91
2023-05-09T16:53:12.814Z,101309.25
2023-05-09T16:55:41.208Z,101304.19
2023-05-09T16:58:09.596Z,101313.78
2023-05-09T17:00:38.230Z,101310.69
2023-05-09T17:03:07.559Z,101303.91
2023-05-09T17:05:36.267Z,101314.72
2023-05-09T17:08:06.161Z,101311.97
2023-05-09T17:10:37.216Z,101319.09
2023-05-09T17:13:09.032Z,101309.25
2023-05-09T17:15:38.810Z,101317.72
2023-05-09T17:18:06.841Z,101310.31
2023-05-09T17:20:34.955Z,101324.69
2023-05-09T17:23:03.693Z,101331.16
2023-05-09T17:25:33.762Z,101330.66
2023-05-09T17:28:01.766Z,101333.47
2023-05-09T17:30:30.025Z,101329.94
2023-05-09T17:32:58.421Z,101339.09
2023-05-09T17:35:29.342Z,101338.25
2023-05-09T17:37:57.690Z,101333.06
2023-05-09T17:40:26.103Z,101326.81
2023-05-09T17:42:54.459Z,101336.63
2023-05-09T17:45:22.599Z,101334.06
2023-05-09T17:47:51.220Z,101338.34
2023-05-09T17:50:24.734Z,101342.25
2023-05-09T17:52:53.408Z,101344.69
2023-05-09T17:55:21.561Z,101341.84
2023-05-09T17:57:50.039Z,101346.41
2023-05-09T18:00:18.975Z,101353.22
2023-05-09T18:02:48.583Z,101351.59
2023-05-09T18:05:31.885Z,101344.91
2023-05-09T18:08:01.506Z,101368.78
2023-05-09T18:10:30.181Z,101359.50
2023-05-09T18:12:59.099Z,101352.38
2023-05-09T18:15:27.428Z,101358.00
2023-05-09T18:17:55.554Z,101352.94
2023-05-09T18:20:24.072Z,101349.72
2023-05-09T18:22:55.693Z,101361.81
2023-05-09T18:25:25.237Z,101360.94
2023-05-09T18:27:59.398Z,101363.63
2023-05-09T18:30:28.060Z,101355.78
2023-05-09T18:33:01.136Z,101359.88
2023-05-09T18:35:30.313Z,101363.44
2023-05-09T18:37:58.745Z,101367.63
2023-05-09T18:40:26.888Z,101361.38
2023-05-09T18:42:54.988Z,101365.25
2023-05-09T18:45:23.808Z,101369.88
2023-05-09T18:47:52.256Z,101364.19
2023-05-09T18:50:20.526Z,101376.16
2023-05-09T18:52:49.285Z,101371.16
2023-05-09T18:55:20.176Z,101369.25
2023-05-09T18:57:49.504Z,101369.31
2023-05-09T19:00:18.288Z,101362.72
2023-05-09T19:02:46.547Z,101363.06
2023-05-09T19:05:17.106Z,101367.78
2023-05-09T19:07:45.303Z,101357.97
2023-05-09T19:10:14.893Z,101359.16
2023-05-09T19:12:43.553Z,101363.81
2023-05-09T19:15:12.853Z,101357.84
2023-05-09T19:17:41.397Z,101364.19
2023-05-09T19:20:10.806Z,101355.78
2023-05-09T19:22:41.420Z,101354.28
2023-05-09T19:25:10.153Z,101359.25
2023-05-09T19:27:38.885Z,101349.97
2023-05-09T19:30:08.408Z,101352.94
2023-05-09T19:32:36.876Z,101349.50
2023-05-09T19:35:05.809Z,101352.31
2023-05-09T19:37:34.032Z,101360.72
2023-05-09T19:40:05.945Z,101355.50
2023-05-09T19:42:35.475Z,101351.38
2023-05-09T19:45:05.400Z,101356.13
2023-05-09T19:47:34.254Z,101351.22
2023-05-09T19:50:02.486Z,101353.16
2023-05-09T19:52:32.159Z,101357.66
2023-05-09T19:55:00.410Z,101357.00
2023-05-09T19:57:28.326Z,101359.16
2023-05-09T19:59:59.344Z,101359.06
2023-05-09T20:02:27.440Z,101353.75
2023-05-09T20:04:55.649Z,101357.63
2023-05-09T20:07:27.172Z,101363.97
2023-05-09T20:09:56.234Z,101370.41
2023-05-09T20:12:24.263Z,101361.59
2023-05-09T20:14:52.385Z,101359.88
2023-05-09T20:17:20.498Z,101358.34
2023-05-09T20:19:48.860Z,101359.28
2023-05-09T20:22:17.545Z,101359.50
2023-05-09T20:24:46.037Z,101361.97
2023-05-09T20:27:14.276Z,101363.13
2023-05-09T20:29:42.152Z,101363.13
2023-05-09T20:32:11.497Z,101354.97
2023-05-09T20:34:40.094Z,101367.75
2023-05-09T20:37:09.348Z,101361.31
2023-05-09T20:39:37.321Z,101362.88
2023-05-09T20:42:06.986Z,101360.66
2023-05-09T20:44:37.517Z,101359.28
2023-05-09T20:47:07.724Z,101361.88
2023-05-09T20:49:39.420Z,101368.25
2023-05-09T20:52:10.892Z,101363.06
2023-05-09T20:54:44.487Z,101361.97
2023-05-09T20:57:15.378Z,101357.47
2023-05-09T20:59:46.309Z,101366.72
2023-05-09T21:02:14.522Z,101362.63
2023-05-09T21:04:45.741Z,101358.88
2023-05-09T21:07:13.787Z,101353.69
2023-05-09T21:09:41.699Z,101356.16
2023-05-09T21:12:11.220Z,101355.09
2023-05-09T21:14:40.281Z,101347.41
2023-05-09T21:17:12.076Z,101352.22
2023-05-09T21:19:40.229Z,101349.66
2023-05-09T21:22:08.090Z,101343.59
2023-05-09T21:24:36.395Z,101353.69
2023-05-09T21:27:05.233Z,101354.78
2023-05-09T21:29:34.082Z,101355.94
2023-05-09T21:32:02.212Z,101350.06
2023-05-09T21:34:30.495Z,101351.25
2023-05-09T21:36:58.750Z,101347.88
2023-05-09T21:39:26.734Z,101353.44
2023-05-09T21:41:56.291Z,101343.94
2023-05-09T21:44:24.879Z,101338.75
2023-05-09T21:46:53.312Z,101338.75
2023-05-09T21:49:21.809Z,101339.84
2023-05-09T21:51:50.314Z,101337.91
2023-05-09T21:54:19.475Z,101345.22
2023-05-09T21:56:51.477Z,101332.63
2023-05-09T21:59:22.596Z,101339.72
2023-05-09T22:01:51.361Z,101335.44
2023-05-09T22:04:19.532Z,101332.63
2023-05-09T22:06:47.650Z,101331.66
2023-05-09T22:09:15.692Z,101338.31
2023-05-09T22:11:43.866Z,101322.53
2023-05-09T22:14:11.854Z,101327.72
2023-05-09T22:16:42.412Z,101330.72
2023-05-09T22:19:10.526Z,101318.13
2023-05-09T22:21:38.588Z,101329.84
2023-05-09T22:24:08.102Z,101324.66
2023-05-09T22:26:38.663Z,101323.91
2023-05-09T22:29:07.127Z,101329.97
2023-05-09T22:31:35.402Z,101319.09
2023-05-09T22:34:04.400Z,101324.47
2023-05-09T22:36:32.605Z,101319.28
2023-05-09T22:39:00.728Z,101324.66
2023-05-09T22:41:28.951Z,101323.31
2023-05-09T22:43:57.778Z,101319.97
2023-05-09T22:46:28.815Z,101321.31
2023-05-09T22:48:57.236Z,101315.16
2023-05-09T22:51:28.313Z,101322.66
2023-05-09T22:53:56.424Z,101309.31
2023-05-09T22:56:24.493Z,101312.06
2023-05-09T22:58:53.082Z,101308.91
2023-05-09T23:01:23.135Z,101325.25
2023-05-09T23:03:51.137Z,101319.97
2023-05-09T23:06:19.076Z,101320.16
2023-05-09T23:08:47.162Z,101314.19
2023-05-09T23:11:15.359Z,101324.28
2023-05-09T23:13:43.480Z,101320.84
2023-05-09T23:16:11.708Z,101324.66
2023-05-09T23:18:39.868Z,101321.69
2023-05-09T23:21:08.182Z,101316.59
2023-05-09T23:23:36.498Z,101315.06
2023-05-09T23:26:05.173Z,101308.38
2023-05-09T23:28:33.072Z,101313.09
2023-05-09T23:31:01.280Z,101308.84
2023-05-09T23:33:29.679Z,101304.69
2023-05-09T23:35:57.906Z,101308.28
2023-05-09T23:38:29.473Z,101304.50
2023-05-09T23:40:58.917Z,101307.31
2023-05-09T23:43:27.457Z,101311.53
2023-05-09T23:45:57.103Z,101311.53
2023-05-09T23:48:25.464Z,101311.44
2023-05-09T23:50:53.738Z,101312.28
2023-05-09T23:53:22.349Z,101311.44
2023-05-09T23:55:50.388Z,101308.91
2023-05-09T23:58:18.418Z,101307.13
